Time;durP1;ratioP1;P1;durP2;ratioP2;P2;SDS_P1;SDS_P2;PMS_P1;PMS_P2;Temp;Humidity;BMP_temperature;BMP_pressure;BME280_temperature;BME280_humidity;BME280_pressure;Samples;Min_cycle;Max_cycle;Signal;HPM_P1;HPM_P2
2021/01/07 00:01:11;;;;;;;9.73;7.22;;;1.50;99.90;;;;;;5052028;28;20021;-70
2021/01/07 00:03:39;;;;;;;10.63;7.40;;;1.50;99.90;;;;;;5052292;28;20082;-69
2021/01/07 00:06:12;;;;;;;8.38;6.55;;;1.50;99.90;;;;;;5052736;28;20033;-70
2021/01/07 00:08:38;;;;;;;;;;;1.60;99.90;;;;;;5053091;28;20029;-69
2021/01/07 00:11:05;;;;;;;9.18;6.50;;;1.40;99.90;;;;;;5052741;28;19901;-69
2021/01/07 00:13:31;;;;;;;10.35;7.18;;;1.50;99.90;;;;;;5052053;28;20200;-69
2021/01/07 00:15:57;;;;;;;10.73;7.20;;;1.50;99.90;;;;;;5052494;28;20707;-70
2021/01/07 00:18:23;;;;;;;9.45;7.32;;;1.50;99.90;;;;;;5051396;28;20086;-70
2021/01/07 00:20:48;;;;;;;10.23;7.28;;;1.40;99.90;;;;;;5052443;28;20391;-71
2021/01/07 00:23:14;;;;;;;11.25;8.27;;;1.30;99.90;;;;;;5051733;28;20025;-70
2021/01/07 00:25:47;;;;;;;11.25;8.68;;;1.40;99.90;;;;;;5051714;28;20108;-71
2021/01/07 00:28:13;;;;;;;10.38;8.57;;;1.40;99.90;;;;;;5052532;28;20028;-69
2021/01/07 00:30:38;;;;;;;10.88;7.38;;;1.40;99.90;;;;;;5052467;28;20139;-70
2021/01/07 00:33:04;;;;;;;11.15;8.00;;;1.40;99.90;;;;;;5051735;28;20029;-70
2021/01/07 00:35:30;;;;;;;10.48;7.80;;;1.40;99.90;;;;;;5051541;28;20028;-71
2021/01/07 00:37:55;;;;;;;10.18;7.95;;;1.40;99.90;;;;;;5052243;28;20017;-71
2021/01/07 00:40:21;;;;;;;10.02;7.43;;;1.40;99.90;;;;;;5051970;28;20024;-70
2021/01/07 00:42:47;;;;;;;10.82;7.82;;;1.30;99.90;;;;;;5051361;28;20387;-70
2021/01/07 00:45:13;;;;;;;11.80;8.27;;;1.40;99.90;;;;;;5051631;28;20539;-71
2021/01/07 00:47:38;;;;;;;10.15;8.00;;;1.10;99.90;;;;;;5051990;28;20052;-70
2021/01/07 00:50:04;;;;;;;9.40;7.30;;;1.40;99.90;;;;;;5051542;28;20021;-69
2021/01/07 00:52:30;;;;;;;10.25;7.97;;;1.40;99.90;;;;;;5051853;28;20029;-68
2021/01/07 00:54:56;;;;;;;9.68;7.80;;;1.40;99.90;;;;;;5050982;28;20017;-70
2021/01/07 00:57:21;;;;;;;12.00;8.95;;;1.40;99.90;;;;;;5035971;28;20487;-69
2021/01/07 00:59:47;;;;;;;13.52;9.13;;;1.40;99.90;;;;;;5031951;28;20029;-69
2021/01/07 01:02:13;;;;;;;12.77;9.40;;;1.50;99.90;;;;;;5031749;28;20029;-69
2021/01/07 01:04:38;;;;;;;12.18;8.50;;;1.60;99.90;;;;;;5031144;28;20418;-71
2021/01/07 01:07:04;;;;;;;11.65;8.23;;;1.50;99.90;;;;;;5049416;28;20113;-70
2021/01/07 01:09:30;;;;;;;13.52;10.07;;;1.50;99.90;;;;;;5051351;28;20063;-70
2021/01/07 01:11:55;;;;;;;10.07;8.45;;;1.50;99.90;;;;;;5051566;28;20037;-70
2021/01/07 01:14:21;;;;;;;11.27;8.32;;;1.50;99.90;;;;;;5050867;28;20035;-70
2021/01/07 01:16:48;;;;;;;11.25;8.65;;;1.50;99.90;;;;;;5051359;28;20029;-70
2021/01/07 01:19:15;;;;;;;10.85;8.52;;;1.50;99.90;;;;;;5050432;28;20027;-72
2021/01/07 01:21:40;;;;;;;12.80;8.95;;;1.40;99.90;;;;;;5051668;28;20139;-72
2021/01/07 01:24:06;;;;;;;12.48;8.95;;;1.40;99.90;;;;;;5050738;28;20025;-71
2021/01/07 01:26:32;;;;;;;11.85;8.68;;;1.50;99.90;;;;;;5051353;28;20076;-71
2021/01/07 01:28:58;;;;;;;13.75;9.52;;;1.40;99.90;;;;;;5051389;28;20021;-69
2021/01/07 01:31:24;;;;;;;11.90;8.25;;;1.40;99.90;;;;;;5051341;28;20033;-70
2021/01/07 01:33:49;;;;;;;13.02;8.90;;;1.40;99.90;;;;;;5050656;28;20036;-70
2021/01/07 01:36:15;;;;;;;15.27;9.57;;;1.40;99.90;;;;;;5051121;28;20052;-71
2021/01/07 01:38:40;;;;;;;13.02;8.93;;;1.40;99.90;;;;;;5051043;28;20060;-72
2021/01/07 01:41:07;;;;;;;11.63;8.85;;;1.40;99.90;;;;;;5033851;28;20028;-70
2021/01/07 01:43:36;;;;;;;14.60;9.35;;;1.40;99.90;;;;;;5049271;28;20025;-69
2021/01/07 01:46:02;;;;;;;13.85;9.93;;;1.40;99.90;;;;;;5051187;28;20025;-69
2021/01/07 01:48:29;;;;;;;13.75;9.73;;;1.40;99.90;;;;;;5033091;28;20025;-70
2021/01/07 01:50:55;;;;;;;12.35;8.82;;;1.50;99.90;;;;;;5051423;28;20368;-70
2021/01/07 01:53:22;;;;;;;15.00;9.63;;;1.50;99.90;;;;;;5050567;28;20025;-70
2021/01/07 01:55:51;;;;;;;14.40;9.90;;;1.40;99.90;;;;;;5050864;28;20059;-71
2021/01/07 01:58:17;;;;;;;13.98;10.07;;;1.50;99.90;;;;;;5051158;28;20017;-70
2021/01/07 02:00:43;;;;;;;14.75;10.23;;;1.40;99.90;;;;;;5052333;28;20545;-72
2021/01/07 02:03:09;;;;;;;15.98;11.10;;;1.50;99.90;;;;;;5054280;28;20033;-71
2021/01/07 02:05:36;;;;;;;13.35;9.43;;;1.40;99.90;;;;;;5054955;28;20028;-71
2021/01/07 02:08:06;;;;;;;12.95;8.90;;;1.40;99.90;;;;;;5029181;28;20033;-72
2021/01/07 02:10:33;;;;;;;15.52;10.38;;;1.40;99.90;;;;;;5034669;28;20022;-70
2021/01/07 02:13:01;;;;;;;13.25;9.65;;;1.40;99.90;;;;;;5034295;28;20029;-70
2021/01/07 02:15:26;;;;;;;14.45;9.80;;;1.40;99.90;;;;;;5036719;28;20041;-69
2021/01/07 02:17:54;;;;;;;13.38;9.57;;;1.40;99.90;;;;;;5054737;28;20019;-69
2021/01/07 02:20:24;;;;;;;13.32;9.95;;;1.40;99.90;;;;;;5036460;28;20028;-69
2021/01/07 02:22:52;;;;;;;14.18;10.18;;;1.30;99.90;;;;;;5054174;28;20021;-71
2021/01/07 02:25:18;;;;;;;14.30;10.15;;;1.40;99.90;;;;;;5053211;28;20029;-70
2021/01/07 02:27:43;;;;;;;14.80;10.30;;;1.40;99.90;;;;;;5055175;28;20021;-69
2021/01/07 02:30:09;;;;;;;14.63;10.32;;;1.40;99.90;;;;;;5053805;28;20029;-71
2021/01/07 02:32:35;;;;;;;14.27;10.27;;;1.30;99.90;;;;;;5054698;28;20078;-70
2021/01/07 02:35:01;;;;;;;15.10;10.82;;;1.40;99.90;;;;;;5053553;28;20024;-72
2021/01/07 02:37:26;;;;;;;15.90;10.93;;;1.40;99.90;;;;;;5054388;28;20083;-70
2021/01/07 02:39:52;;;;;;;16.05;11.23;;;1.40;99.90;;;;;;5036419;28;20120;-69
2021/01/07 02:42:17;;;;;;;15.98;10.75;;;1.30;99.90;;;;;;5037694;28;20112;-71
2021/01/07 02:44:43;;;;;;;15.63;10.27;;;1.40;99.90;;;;;;5053357;28;20119;-72
2021/01/07 02:47:09;;;;;;;15.73;9.82;;;1.30;99.90;;;;;;5054350;28;20025;-69
2021/01/07 02:49:34;;;;;;;14.65;10.27;;;1.30;99.90;;;;;;5053707;28;20029;-70
2021/01/07 02:52:00;;;;;;;14.75;10.00;;;1.30;99.90;;;;;;5053852;28;20067;-70
2021/01/07 02:54:28;;;;;;;17.17;10.52;;;1.30;99.90;;;;;;5053429;28;20158;-71
2021/01/07 02:56:53;;;;;;;13.13;9.73;;;1.40;99.90;;;;;;5053894;28;20028;-73
2021/01/07 02:59:19;;;;;;;17.13;10.98;;;1.40;99.90;;;;;;5053748;28;20033;-71
2021/01/07 03:01:45;;;;;;;15.80;11.15;;;1.40;99.90;;;;;;5053920;28;20479;-71
2021/01/07 03:04:10;;;;;;;16.27;10.63;;;1.40;99.90;;;;;;5053249;28;20529;-71
2021/01/07 03:06:36;;;;;;;16.60;11.82;;;1.40;99.90;;;;;;5034434;28;20033;-70
2021/01/07 03:09:03;;;;;;;18.83;12.48;;;1.30;99.90;;;;;;5053800;28;20044;-69
2021/01/07 03:11:28;;;;;;;16.02;11.15;;;1.30;99.90;;;;;;5052899;28;20586;-70
2021/01/07 03:13:54;;;;;;;16.27;10.70;;;1.30;99.90;;;;;;5052461;28;20021;-70
2021/01/07 03:16:20;;;;;;;19.55;11.70;;;1.30;99.90;;;;;;5053581;28;20094;-69
2021/01/07 03:18:45;;;;;;;16.10;11.15;;;1.30;99.90;;;;;;5053348;28;20029;-71
2021/01/07 03:21:11;;;;;;;16.73;11.27;;;1.30;99.90;;;;;;5052650;28;20518;-71
2021/01/07 03:23:37;;;;;;;17.88;11.10;;;1.30;99.90;;;;;;5052238;28;20108;-71
2021/01/07 03:26:02;;;;;;;17.40;11.27;;;1.30;99.90;;;;;;5053228;28;20052;-71
2021/01/07 03:28:28;;;;;;;17.15;10.40;;;1.30;99.90;;;;;;5053136;28;20078;-71
2021/01/07 03:30:54;;;;;;;17.20;11.48;;;1.30;99.90;;;;;;5053308;28;20083;-71
2021/01/07 03:33:20;;;;;;;16.67;11.35;;;1.30;99.90;;;;;;5034814;28;20021;-70
2021/01/07 03:35:46;;;;;;;17.65;11.43;;;1.30;99.90;;;;;;5035255;28;20021;-71
2021/01/07 03:38:12;;;;;;;16.92;11.98;;;1.30;99.90;;;;;;5053380;28;20025;-70
2021/01/07 03:40:37;;;;;;;17.70;11.70;;;1.30;99.90;;;;;;5052924;28;20055;-71
2021/01/07 03:43:03;;;;;;;18.90;11.98;;;1.20;99.90;;;;;;5052408;28;20025;-71
2021/01/07 03:45:29;;;;;;;15.98;11.07;;;1.20;99.90;;;;;;5053114;28;20078;-70
2021/01/07 03:47:55;;;;;;;18.17;11.55;;;1.30;99.90;;;;;;5053008;28;20017;-71
2021/01/07 03:50:21;;;;;;;18.98;12.27;;;1.30;99.90;;;;;;5052337;28;20028;-70
2021/01/07 03:52:47;;;;;;;22.27;13.00;;;1.20;99.90;;;;;;5052238;28;20013;-73
2021/01/07 03:55:12;;;;;;;18.10;11.77;;;1.30;99.90;;;;;;5051680;28;20040;-71
2021/01/07 03:57:38;;;;;;;19.23;12.27;;;1.20;99.90;;;;;;5052446;28;20076;-72
2021/01/07 04:00:05;;;;;;;20.20;11.98;;;1.20;99.90;;;;;;5052901;28;20032;-71
2021/01/07 04:02:31;;;;;;;19.00;12.23;;;1.30;99.90;;;;;;5052718;28;20104;-71
2021/01/07 04:04:57;;;;;;;18.63;11.95;;;1.20;99.90;;;;;;5051978;28;20542;-70
2021/01/07 04:07:22;;;;;;;20.42;12.70;;;1.20;99.90;;;;;;5052313;28;20029;-69
2021/01/07 04:09:48;;;;;;;21.15;13.27;;;1.30;99.90;;;;;;5052545;28;20040;-69
2021/01/07 04:12:14;;;;;;;21.95;13.18;;;1.30;99.90;;;;;;5052152;28;20338;-70
2021/01/07 04:14:39;;;;;;;18.58;12.15;;;1.20;99.90;;;;;;5051671;28;20044;-70
2021/01/07 04:17:05;;;;;;;19.08;12.57;;;1.20;99.90;;;;;;5052347;28;20043;-71
2021/01/07 04:19:30;;;;;;;21.08;12.30;;;1.30;99.90;;;;;;5051328;28;20045;-70
2021/01/07 04:21:56;;;;;;;20.55;13.07;;;1.30;99.90;;;;;;5052518;28;20087;-72
2021/01/07 04:24:22;;;;;;;19.52;12.52;;;1.20;99.90;;;;;;5051166;28;20055;-72
2021/01/07 04:26:47;;;;;;;17.73;12.18;;;1.30;99.90;;;;;;5051985;28;20108;-71
2021/01/07 04:29:13;;;;;;;20.65;13.60;;;1.30;99.90;;;;;;5052106;28;20029;-72
2021/01/07 04:31:39;;;;;;;20.00;12.80;;;1.30;99.90;;;;;;5052256;28;20033;-69
2021/01/07 04:34:06;;;;;;;20.63;12.82;;;1.40;99.90;;;;;;5049782;28;20035;-71
2021/01/07 04:36:31;;;;;;;19.13;13.00;;;1.30;99.90;;;;;;5051396;28;20021;-71
2021/01/07 04:38:57;;;;;;;19.00;12.50;;;1.30;99.90;;;;;;5051897;28;20390;-71
2021/01/07 04:41:23;;;;;;;22.10;13.10;;;1.30;99.90;;;;;;5052156;28;20029;-69
2021/01/07 04:43:59;;;;;;;19.33;12.38;;;1.40;99.90;;;;;;5050110;28;20025;-71
2021/01/07 04:46:26;;;;;;;17.42;11.93;;;1.30;99.90;;;;;;5051808;28;20025;-69
2021/01/07 04:48:52;;;;;;;18.90;12.43;;;1.30;99.90;;;;;;5051652;28;20091;-72
2021/01/07 04:51:17;;;;;;;17.55;12.52;;;1.40;99.90;;;;;;5051534;28;20025;-71
2021/01/07 04:53:44;;;;;;;19.25;12.40;;;1.40;99.90;;;;;;5051049;28;20113;-70
2021/01/07 04:56:12;;;;;;;17.00;11.73;;;1.40;99.90;;;;;;5032329;28;20075;-71
2021/01/07 04:58:38;;;;;;;20.27;13.23;;;1.50;99.90;;;;;;5051712;28;20501;-71
2021/01/07 05:01:04;;;;;;;18.90;12.65;;;1.40;99.90;;;;;;5052065;28;20024;-70
2021/01/07 05:03:34;;;;;;;21.15;13.18;;;1.40;99.90;;;;;;5051268;28;20025;-69
2021/01/07 05:06:00;;;;;;;21.48;13.48;;;1.50;99.90;;;;;;5050674;28;20540;-70
2021/01/07 05:08:26;;;;;;;21.70;14.05;;;1.50;99.90;;;;;;5051560;28;20037;-70
2021/01/07 05:10:53;;;;;;;21.67;13.48;;;1.40;99.90;;;;;;5051156;28;20017;-72
2021/01/07 05:13:23;;;;;;;21.67;13.90;;;1.40;99.90;;;;;;5051078;28;20021;-70
2021/01/07 05:15:50;;;;;;;21.60;14.02;;;1.40;99.90;;;;;;5051224;28;20071;-70
2021/01/07 05:18:16;;;;;;;23.23;14.23;;;1.40;99.90;;;;;;5051561;28;20368;-69
2021/01/07 05:20:42;;;;;;;24.70;14.90;;;1.40;99.90;;;;;;5049233;28;20060;-69
2021/01/07 05:23:08;;;;;;;25.20;14.57;;;1.30;99.90;;;;;;5051114;28;20425;-72
2021/01/07 05:25:37;;;;;;;24.75;15.13;;;1.40;99.90;;;;;;5051323;28;20044;-71
2021/01/07 05:28:06;;;;;;;28.80;14.95;;;1.30;99.90;;;;;;5051620;28;20120;-71
2021/01/07 05:30:34;;;;;;;22.67;14.82;;;1.40;99.90;;;;;;5051011;28;20048;-70
2021/01/07 05:33:06;;;;;;;23.50;15.30;;;1.30;99.90;;;;;;5050526;28;20025;-71
2021/01/07 05:35:33;;;;;;;26.55;15.63;;;1.30;99.90;;;;;;5051803;28;20108;-72
2021/01/07 05:38:00;;;;;;;23.63;15.32;;;1.40;99.90;;;;;;5055559;28;20044;-71
2021/01/07 05:40:26;;;;;;;23.08;14.05;;;1.30;99.90;;;;;;5054185;28;20020;-70
2021/01/07 05:42:59;;;;;;;19.38;13.55;;;1.40;99.90;;;;;;5054855;28;20053;-71
2021/01/07 05:45:38;;;;;;;25.65;13.95;;;1.30;99.90;;;;;;5055543;28;20032;-70
2021/01/07 05:48:04;;;;;;;21.08;13.43;;;1.30;99.90;;;;;;5055339;28;20017;-70
2021/01/07 05:50:36;;;;;;;22.90;13.85;;;1.30;99.90;;;;;;5055307;28;20028;-70
2021/01/07 05:53:02;;;;;;;;;;;1.40;99.90;;;;;;5055010;28;20025;-71
2021/01/07 05:55:28;;;;;;;25.75;16.13;;;1.40;99.90;;;;;;5055130;28;19970;-71
2021/01/07 05:58:02;;;;;;;22.98;14.38;;;1.40;99.90;;;;;;5055666;28;20075;-70
2021/01/07 06:00:32;;;;;;;25.00;14.57;;;1.40;99.90;;;;;;5055213;28;20067;-70
2021/01/07 06:02:59;;;;;;;21.27;13.10;;;1.30;99.90;;;;;;5053446;28;20488;-72
2021/01/07 06:05:26;;;;;;;22.92;15.20;;;1.30;99.90;;;;;;5028667;28;20036;-69
2021/01/07 06:07:54;;;;;;;20.20;13.02;;;1.40;99.90;;;;;;5034336;28;20479;-70
2021/01/07 06:10:21;;;;;;;21.05;14.38;;;1.40;99.90;;;;;;5041497;28;20033;-70
2021/01/07 06:12:47;;;;;;;23.83;13.85;;;1.40;99.90;;;;;;5033916;28;20100;-71
2021/01/07 06:15:15;;;;;;;23.42;14.77;;;1.30;99.90;;;;;;5033997;28;20033;-70
2021/01/07 06:17:42;;;;;;;24.48;14.57;;;1.30;99.90;;;;;;5034148;28;20041;-71
2021/01/07 06:20:18;;;;;;;24.23;14.43;;;1.50;99.90;;;;;;5034275;28;20033;-69
2021/01/07 06:22:51;;;;;;;26.40;15.05;;;1.40;99.90;;;;;;5043567;28;20021;-70
2021/01/07 06:25:22;;;;;;;27.10;15.13;;;1.40;99.90;;;;;;5053386;28;20025;-72
2021/01/07 06:27:49;;;;;;;26.23;15.85;;;1.50;99.90;;;;;;5054161;28;20075;-67
2021/01/07 06:30:15;;;;;;;24.75;14.93;;;1.50;99.90;;;;;;5054063;28;20032;-67
2021/01/07 06:32:42;;;;;;;34.70;18.55;;;1.50;99.90;;;;;;5052137;28;20398;-70
2021/01/07 06:35:12;;;;;;;29.33;17.38;;;1.90;99.90;;;;;;5053366;28;20428;-72
2021/01/07 06:37:41;;;;;;;25.65;15.27;;;1.90;99.90;;;;;;5054019;28;20013;-71
2021/01/07 06:40:11;;;;;;;28.73;16.92;;;1.80;99.90;;;;;;5040215;28;20425;-71
2021/01/07 06:42:41;;;;;;;23.58;14.68;;;1.80;99.90;;;;;;5033259;28;20119;-70
2021/01/07 06:45:12;;;;;;;26.58;14.43;;;1.90;99.90;;;;;;5015570;28;20159;-68
2021/01/07 06:47:38;;;;;;;23.15;14.32;;;1.80;99.90;;;;;;5015101;28;20129;-66
2021/01/07 06:50:05;;;;;;;22.77;14.15;;;1.80;99.90;;;;;;5033561;28;20066;-67
2021/01/07 06:52:44;;;;;;;23.88;14.45;;;1.70;99.90;;;;;;5033808;28;20403;-67
2021/01/07 06:55:14;;;;;;;21.45;13.90;;;1.70;99.90;;;;;;5033041;28;20172;-67
2021/01/07 06:57:47;;;;;;;24.70;14.45;;;1.70;99.90;;;;;;5044764;28;20021;-68
2021/01/07 07:00:18;;;;;;;20.52;13.23;;;1.70;99.90;;;;;;5053772;28;20013;-67
2021/01/07 07:03:09;;;;;;;22.10;13.65;;;1.70;99.90;;;;;;5053076;28;20092;-67
2021/01/07 07:05:39;;;;;;;23.87;14.03;;;1.70;99.90;;;;;;5053047;28;20021;-66
2021/01/07 07:08:12;;;;;;;26.83;15.50;;;1.70;99.90;;;;;;5052815;28;20028;-67
2021/01/07 07:10:38;;;;;;;22.63;14.15;;;1.70;99.90;;;;;;5053802;28;20086;-65
2021/01/07 07:13:20;;;;;;;23.10;14.18;;;1.60;99.90;;;;;;5052836;28;20025;-66
2021/01/07 07:15:47;;;;;;;22.67;14.25;;;1.60;99.90;;;;;;5053047;28;20420;-65
2021/01/07 07:18:25;;;;;;;23.50;14.85;;;1.60;99.90;;;;;;5053435;28;20132;-67
2021/01/07 07:20:51;;;;;;;20.48;13.48;;;1.60;99.90;;;;;;5051466;28;20507;-65
2021/01/07 07:23:21;;;;;;;23.90;14.20;;;1.60;99.90;;;;;;5052351;28;20041;-65
2021/01/07 07:25:55;;;;;;;20.48;13.63;;;1.60;99.90;;;;;;5052815;28;20033;-65
2021/01/07 07:28:25;;;;;;;23.85;14.80;;;1.70;99.90;;;;;;5045590;28;20558;-70
2021/01/07 07:30:52;;;;;;;19.92;12.95;;;1.60;99.90;;;;;;5052969;28;20486;-68
2021/01/07 07:33:31;;;;;;;18.15;12.60;;;1.40;99.90;;;;;;5052248;28;20021;-69
2021/01/07 07:35:57;;;;;;;21.75;13.68;;;1.40;99.90;;;;;;5047702;28;20041;-67
2021/01/07 07:38:31;;;;;;;21.67;13.65;;;1.50;99.90;;;;;;5046182;28;20435;-69
2021/01/07 07:41:19;;;;;;;21.85;13.43;;;1.60;99.90;;;;;;5050529;28;20017;-69
2021/01/07 07:43:45;;;;;;;22.73;14.52;;;1.50;99.90;;;;;;5049000;28;20021;-69
2021/01/07 07:46:11;;;;;;;21.60;14.52;;;1.60;99.90;;;;;;5052871;28;20041;-66
2021/01/07 07:48:37;;;;;;;35.92;22.00;;;1.70;99.90;;;;;;5054155;28;20032;-67
2021/01/07 07:51:09;;;;;;;43.63;25.75;;;1.70;99.90;;;;;;5054906;28;20710;-70
2021/01/07 07:53:37;;;;;;;24.02;14.75;;;1.60;99.90;;;;;;5052509;28;20043;-70
2021/01/07 07:56:04;;;;;;;21.88;13.75;;;1.50;99.90;;;;;;5052958;28;20028;-69
2021/01/07 07:58:31;;;;;;;22.48;13.43;;;1.50;99.90;;;;;;5052022;28;20025;-68
2021/01/07 08:00:58;;;;;;;24.40;13.68;;;1.50;99.90;;;;;;5027159;28;20014;-69
2021/01/07 08:03:31;;;;;;;23.33;13.43;;;1.50;99.90;;;;;;5032269;28;20026;-70
2021/01/07 08:06:00;;;;;;;22.35;14.23;;;1.50;99.90;;;;;;5015343;28;20412;-68
2021/01/07 08:08:33;;;;;;;23.20;14.02;;;1.60;99.90;;;;;;5051926;28;20025;-68
2021/01/07 08:11:01;;;;;;;24.45;14.27;;;1.50;99.90;;;;;;5034632;28;20025;-69
2021/01/07 08:13:28;;;;;;;21.67;13.80;;;1.50;99.90;;;;;;5051746;28;20025;-67
2021/01/07 08:15:59;;;;;;;23.23;14.10;;;1.70;99.90;;;;;;5052387;28;20074;-78
2021/01/07 08:18:26;;;;;;;21.30;14.00;;;1.70;99.90;;;;;;5052402;28;20392;-74
2021/01/07 08:20:53;;;;;;;23.08;14.65;;;1.70;99.90;;;;;;5054542;28;20391;-76
2021/01/07 08:23:21;;;;;;;20.40;13.50;;;1.80;99.90;;;;;;5070154;28;20084;-76
2021/01/07 08:25:51;;;;;;;23.27;15.27;;;1.90;99.90;;;;;;5069316;28;20017;-77
2021/01/07 08:28:59;;;;;;;22.67;13.38;;;2.00;99.90;;;;;;5072802;28;20009;-78
2021/01/07 08:31:30;;;;;;;20.48;13.48;;;2.00;99.90;;;;;;4994572;28;20026;-77
2021/01/07 08:33:56;;;;;;;21.90;13.55;;;2.10;99.90;;;;;;5061368;28;20029;-77
2021/01/07 08:36:22;;;;;;;21.88;14.05;;;2.00;99.90;;;;;;5074026;28;20067;-77
2021/01/07 08:38:54;;;;;;;24.25;13.98;;;2.10;99.90;;;;;;5071714;28;20025;-77
2021/01/07 08:41:23;;;;;;;23.00;14.00;;;2.20;99.90;;;;;;5052776;28;20025;-78
2021/01/07 08:43:51;;;;;;;24.50;14.30;;;2.40;99.90;;;;;;5052709;28;20029;-77
2021/01/07 08:46:18;;;;;;;20.83;13.93;;;2.50;99.90;;;;;;5052910;28;20021;-75
2021/01/07 08:48:56;;;;;;;20.63;12.52;;;2.70;99.90;;;;;;5052469;28;20037;-76
2021/01/07 08:51:22;;;;;;;22.17;12.75;;;2.50;99.90;;;;;;5042390;28;20052;-77
2021/01/07 08:53:52;;;;;;;20.00;12.77;;;2.70;99.90;;;;;;5030589;28;20021;-75
2021/01/07 08:56:35;;;;;;;24.23;14.27;;;2.80;99.90;;;;;;5050150;28;20025;-77
2021/01/07 08:59:23;;;;;;;20.20;13.48;;;2.90;99.90;;;;;;5051718;28;20032;-74
2021/01/07 09:01:58;;;;;;;21.35;13.43;;;3.00;99.90;;;;;;5044371;28;20045;-77
2021/01/07 09:04:44;;;;;;;21.08;13.25;;;3.10;99.90;;;;;;5052551;28;20025;-76
2021/01/07 09:07:12;;;;;;;24.05;12.57;;;3.20;99.90;;;;;;5033591;28;20144;-76
2021/01/07 09:09:41;;;;;;;17.85;12.23;;;3.30;99.90;;;;;;5052364;28;20494;-76
2021/01/07 09:12:27;;;;;;;23.30;12.13;;;3.30;99.90;;;;;;5052124;28;20029;-75
2021/01/07 09:14:55;;;;;;;18.27;12.10;;;3.30;99.90;;;;;;5012440;28;20531;-75
2021/01/07 09:17:37;;;;;;;21.55;12.65;;;3.10;99.90;;;;;;5036817;28;20099;-76
2021/01/07 09:20:06;;;;;;;22.83;13.38;;;3.30;99.90;;;;;;5033594;28;20029;-76
2021/01/07 09:22:32;;;;;;;19.20;12.15;;;3.30;99.90;;;;;;5036180;28;20483;-76
2021/01/07 09:24:59;;;;;;;20.73;12.85;;;3.40;99.90;;;;;;5019620;28;20041;-77
2021/01/07 09:27:25;;;;;;;20.73;13.15;;;3.30;99.90;;;;;;5017449;28;20029;-77
2021/01/07 09:29:51;;;;;;;21.05;13.30;;;3.30;99.90;;;;;;5034349;28;20492;-75
2021/01/07 09:32:17;;;;;;;18.50;12.52;;;3.20;99.90;;;;;;5034717;28;20025;-69
2021/01/07 09:34:44;;;;;;;23.23;13.65;;;3.10;99.90;;;;;;5037067;28;20033;-77
2021/01/07 09:37:18;;;;;;;21.20;13.07;;;3.00;99.90;;;;;;5023812;28;20387;-66
2021/01/07 09:39:45;;;;;;;24.48;14.18;;;2.90;99.90;;;;;;5052538;28;20021;-67
2021/01/07 09:42:11;;;;;;;19.17;12.73;;;2.80;99.90;;;;;;5057745;28;20032;-78
2021/01/07 09:44:37;;;;;;;23.83;14.80;;;2.60;99.90;;;;;;5052726;28;20025;-76
2021/01/07 09:47:05;;;;;;;23.50;14.20;;;2.70;99.90;;;;;;5051799;28;20036;-75
2021/01/07 09:49:31;;;;;;;21.63;14.52;;;2.90;99.90;;;;;;5051357;28;20029;-76
2021/01/07 09:51:57;;;;;;;22.00;14.35;;;3.00;99.90;;;;;;5034621;28;20025;-78
2021/01/07 09:54:24;;;;;;;22.33;12.77;;;3.00;99.90;;;;;;5043236;28;20041;-77
2021/01/07 09:56:57;;;;;;;20.63;13.57;;;3.20;99.90;;;;;;5044098;28;20021;-79
2021/01/07 09:59:23;;;;;;;19.85;12.82;;;3.20;99.90;;;;;;5036087;28;20154;-75
2021/01/07 10:01:57;;;;;;;22.02;12.75;;;3.00;99.90;;;;;;5053388;28;20672;-75
2021/01/07 10:04:23;;;;;;;19.67;12.93;;;3.10;99.90;;;;;;5034122;28;20032;-76
2021/01/07 10:06:49;;;;;;;23.17;14.35;;;3.20;99.90;;;;;;5035417;28;20040;-74
2021/01/07 10:09:15;;;;;;;19.08;12.50;;;3.30;99.90;;;;;;5057521;28;20029;-76
2021/01/07 10:11:41;;;;;;;20.85;13.52;;;3.40;99.90;;;;;;5059346;28;20422;-75
2021/01/07 10:14:07;;;;;;;23.35;14.10;;;3.60;99.90;;;;;;5039393;28;20029;-75
2021/01/07 10:16:33;;;;;;;20.05;13.43;;;3.70;99.90;;;;;;5059622;28;20025;-76
2021/01/07 10:18:59;;;;;;;25.23;14.60;;;3.70;99.90;;;;;;5057493;28;20339;-77
2021/01/07 10:21:25;;;;;;;20.48;13.40;;;3.70;99.90;;;;;;5055413;28;20021;-75
2021/01/07 10:23:55;;;;;;;22.85;14.20;;;3.80;99.90;;;;;;5060016;28;20033;-79
2021/01/07 10:26:21;;;;;;;21.58;14.02;;;3.70;99.90;;;;;;5057867;28;20180;-78
2021/01/07 10:28:48;;;;;;;21.77;14.70;;;3.60;99.90;;;;;;5061471;28;20135;-75
2021/01/07 10:31:15;;;;;;;20.58;13.82;;;3.70;99.90;;;;;;5059020;28;20028;-77
2021/01/07 10:33:42;;;;;;;22.05;14.32;;;3.60;99.90;;;;;;5059030;28;20558;-76
2021/01/07 10:36:09;;;;;;;21.98;13.00;;;3.90;99.90;;;;;;5062086;28;20041;-74
2021/01/07 10:38:37;;;;;;;20.60;13.45;;;4.00;99.90;;;;;;5059308;28;20075;-68
2021/01/07 10:41:06;;;;;;;22.08;13.85;;;4.10;99.90;;;;;;5054271;28;20115;-68
2021/01/07 10:43:33;;;;;;;18.67;12.98;;;4.30;99.90;;;;;;5053988;28;20505;-66
2021/01/07 10:45:59;;;;;;;19.85;13.35;;;4.20;99.90;;;;;;5054301;28;20478;-68
2021/01/07 10:48:25;;;;;;;19.65;13.27;;;4.30;99.90;;;;;;5054104;28;20067;-67
2021/01/07 10:50:51;;;;;;;19.08;13.80;;;4.40;99.90;;;;;;5054413;28;20032;-66
2021/01/07 10:53:53;;;;;;;17.38;12.18;;;4.60;99.90;;;;;;5053544;28;20040;-65
2021/01/07 10:56:29;;;;;;;20.08;13.15;;;4.60;99.90;;;;;;5016962;28;20037;-67
2021/01/07 10:59:21;;;;;;;23.13;14.45;;;4.90;99.90;;;;;;5034286;28;20083;-66
2021/01/07 11:02:06;;;;;;;19.75;13.73;;;5.30;99.90;;;;;;5033841;28;20112;-66
2021/01/07 11:05:07;;;;;;;20.85;14.73;;;5.60;99.90;;;;;;5038688;28;20029;-65
2021/01/07 11:08:20;;;;;;;20.60;13.55;;;5.50;99.90;;;;;;5049140;28;20029;-66
2021/01/07 11:10:49;;;;;;;;;;;5.60;99.90;;;;;;4984625;28;20030;-68
2021/01/07 11:13:18;;;;;;;21.17;14.50;;;5.70;99.90;;;;;;4981596;28;19914;-66
2021/01/07 11:15:45;;;;;;;21.30;14.02;;;5.80;99.90;;;;;;5015130;28;20041;-65
2021/01/07 11:18:14;;;;;;;22.20;13.80;;;5.80;99.90;;;;;;5053185;28;20391;-67
2021/01/07 11:20:48;;;;;;;21.23;14.63;;;5.70;99.90;;;;;;5045281;28;20017;-67
2021/01/07 11:23:14;;;;;;;19.92;13.57;;;5.70;99.90;;;;;;5045779;28;20022;-67
2021/01/07 11:25:40;;;;;;;21.65;14.27;;;5.70;99.90;;;;;;5052468;28;20008;-68
2021/01/07 11:28:06;;;;;;;18.73;13.07;;;5.80;99.90;;;;;;5053085;28;20071;-66
2021/01/07 11:30:32;;;;;;;20.75;13.82;;;5.70;99.90;;;;;;5052978;28;20025;-67
2021/01/07 11:33:02;;;;;;;19.23;13.82;;;5.60;99.90;;;;;;5039825;28;20014;-67
2021/01/07 11:35:29;;;;;;;20.75;14.05;;;5.70;99.90;;;;;;5035224;28;20032;-66
2021/01/07 11:38:04;;;;;;;22.08;15.30;;;5.80;99.90;;;;;;5033190;28;20045;-68
2021/01/07 11:40:40;;;;;;;20.45;13.48;;;5.70;99.90;;;;;;5033498;28;20022;-70
2021/01/07 11:43:36;;;;;;;23.48;13.93;;;5.80;99.90;;;;;;5014848;28;20120;-72
2021/01/07 11:46:03;;;;;;;19.92;13.88;;;5.90;99.90;;;;;;5033064;28;20022;-69
2021/01/07 11:48:32;;;;;;;19.00;13.25;;;5.70;99.90;;;;;;5033638;28;20045;-66
2021/01/07 11:51:04;;;;;;;18.48;13.25;;;5.80;99.90;;;;;;5032937;28;20026;-67
2021/01/07 11:53:30;;;;;;;20.80;13.38;;;5.70;99.90;;;;;;5035554;28;20025;-67
2021/01/07 11:55:57;;;;;;;22.60;15.15;;;5.50;99.90;;;;;;5052623;28;20021;-67
2021/01/07 11:58:24;;;;;;;20.33;13.98;;;5.80;99.90;;;;;;5052540;28;20045;-67
2021/01/07 12:01:00;;;;;;;20.23;14.25;;;5.60;99.90;;;;;;5050865;28;20025;-65
2021/01/07 12:03:30;;;;;;;22.27;13.65;;;5.50;99.90;;;;;;5050228;28;20021;-65
2021/01/07 12:06:05;;;;;;;18.98;12.90;;;5.10;99.90;;;;;;5052460;28;20032;-68
2021/01/07 12:09:05;;;;;;;19.25;13.73;;;4.90;99.90;;;;;;5051030;28;20107;-66
2021/01/07 12:11:36;;;;;;;19.00;12.98;;;5.00;99.90;;;;;;5052517;28;20025;-65
2021/01/07 12:14:25;;;;;;;17.65;12.52;;;4.80;99.90;;;;;;5051721;28;20029;-66
2021/01/07 12:16:53;;;;;;;21.38;12.70;;;5.00;99.90;;;;;;5051954;28;20047;-76
2021/01/07 12:19:23;;;;;;;21.27;13.60;;;5.20;99.90;;;;;;5051427;28;20033;-77
2021/01/07 12:21:50;;;;;;;19.23;13.25;;;5.40;99.90;;;;;;5052751;28;20028;-73
2021/01/07 12:24:17;;;;;;;22.60;13.95;;;5.40;99.90;;;;;;5034297;28;20032;-69
2021/01/07 12:26:47;;;;;;;18.92;13.07;;;5.40;99.90;;;;;;5055735;28;20349;-77
2021/01/07 12:29:23;;;;;;;21.23;13.00;;;5.20;99.90;;;;;;5042361;28;20033;-76
2021/01/07 12:31:54;;;;;;;21.73;13.73;;;5.20;99.90;;;;;;5037703;28;20094;-73
2021/01/07 12:34:41;;;;;;;17.70;13.00;;;5.20;99.90;;;;;;5051528;28;20029;-72
2021/01/07 12:37:16;;;;;;;19.65;12.95;;;5.30;99.90;;;;;;5051684;28;20028;-70
2021/01/07 12:40:06;;;;;;;20.55;13.20;;;5.40;99.90;;;;;;5051796;28;20021;-70
2021/01/07 12:42:37;;;;;;;18.02;12.93;;;5.30;99.90;;;;;;5052151;28;20361;-73
2021/01/07 12:45:04;;;;;;;19.17;13.30;;;5.20;99.90;;;;;;5047633;28;20033;-71
2021/01/07 12:47:30;;;;;;;20.58;14.32;;;5.30;99.90;;;;;;5041074;28;20112;-70
2021/01/07 12:50:01;;;;;;;21.25;13.93;;;5.40;99.90;;;;;;5019591;28;20104;-71